Time;durP1;ratioP1;P1;durP2;ratioP2;P2;SDS_P1;SDS_P2;PMS_P1;PMS_P2;Temp;Humidity;BMP_temperature;BMP_pressure;BME280_temperature;BME280_humidity;BME280_pressure;Samples;Min_cycle;Max_cycle;Signal;HPM_P1;HPM_P2
2022/07/14 00:01:24;;;;;;;8.38;3.25;;;18.50;99.90;;;;;;5042035;28;20053;-59
2022/07/14 00:03:50;;;;;;;7.20;3.55;;;18.50;99.90;;;;;;5032406;28;20386;-58
2022/07/14 00:06:16;;;;;;;6.65;4.00;;;18.40;99.90;;;;;;5034791;28;20095;-58
2022/07/14 00:08:45;;;;;;;4.88;3.20;;;18.40;99.90;;;;;;5038188;28;20030;-59
2022/07/14 00:11:11;;;;;;;4.00;3.08;;;18.30;99.90;;;;;;5031366;28;20030;-59
2022/07/14 00:13:37;;;;;;;4.63;3.40;;;18.30;99.90;;;;;;5024575;28;20095;-58
2022/07/14 00:16:03;;;;;;;7.25;3.28;;;18.30;99.90;;;;;;5033174;28;20025;-59
2022/07/14 00:18:29;;;;;;;7.03;3.13;;;18.30;99.90;;;;;;5031197;28;20033;-58
2022/07/14 00:20:55;;;;;;;6.30;3.10;;;18.30;99.90;;;;;;5040256;28;20029;-58
2022/07/14 00:23:22;;;;;;;8.02;3.63;;;18.20;99.90;;;;;;5037214;28;20043;-59
2022/07/14 00:25:48;;;;;;;5.45;3.35;;;18.20;99.90;;;;;;5035294;28;20025;-58
2022/07/14 00:28:14;;;;;;;5.15;3.42;;;18.20;99.90;;;;;;5037814;28;20437;-59
2022/07/14 00:30:39;;;;;;;6.53;3.35;;;18.10;99.90;;;;;;5040412;28;20029;-58
2022/07/14 00:33:05;;;;;;;8.27;2.85;;;18.00;99.90;;;;;;5042372;28;20064;-59
2022/07/14 00:35:31;;;;;;;11.05;3.55;;;17.90;99.90;;;;;;5043369;28;21788;-59
2022/07/14 00:37:56;;;;;;;7.88;3.22;;;17.80;99.90;;;;;;5040044;28;20029;-59
2022/07/14 00:40:22;;;;;;;4.88;3.15;;;17.80;99.90;;;;;;5034463;28;20384;-59
2022/07/14 00:42:49;;;;;;;6.82;3.33;;;17.70;99.90;;;;;;5063125;28;20041;-59
2022/07/14 00:45:20;;;;;;;5.93;3.67;;;17.70;99.90;;;;;;5042804;28;20469;-59
2022/07/14 00:47:47;;;;;;;6.63;3.63;;;17.60;99.90;;;;;;5035721;28;20036;-59
2022/07/14 00:50:16;;;;;;;7.03;3.50;;;17.60;99.90;;;;;;5030998;28;20087;-59
2022/07/14 00:52:43;;;;;;;10.30;6.13;;;17.50;99.90;;;;;;5040831;28;20024;-58
2022/07/14 00:55:12;;;;;;;8.30;3.50;;;17.50;99.90;;;;;;5036297;28;20488;-58
2022/07/14 00:57:38;;;;;;;5.55;3.65;;;17.50;99.90;;;;;;5037780;28;20021;-58
2022/07/14 01:00:12;;;;;;;7.70;3.70;;;17.40;99.90;;;;;;5030971;28;20100;-60
2022/07/14 01:02:38;;;;;;;6.78;3.05;;;17.40;99.90;;;;;;5028184;28;20167;-60
2022/07/14 01:05:05;;;;;;;9.38;4.05;;;17.40;99.90;;;;;;5032380;28;20117;-60
2022/07/14 01:07:32;;;;;;;13.18;3.63;;;17.40;99.90;;;;;;5038326;28;20086;-60
2022/07/14 01:09:57;;;;;;;6.05;3.47;;;17.30;99.90;;;;;;5037312;28;20030;-59
2022/07/14 01:12:23;;;;;;;6.00;3.83;;;17.30;99.90;;;;;;5034874;28;20037;-59
2022/07/14 01:14:49;;;;;;;6.40;3.47;;;17.30;99.90;;;;;;5032268;28;20036;-59
2022/07/14 01:17:15;;;;;;;7.85;4.20;;;17.20;99.90;;;;;;5027341;28;20033;-59
2022/07/14 01:19:40;;;;;;;9.10;3.30;;;17.20;99.90;;;;;;5021731;28;20026;-58
2022/07/14 01:22:07;;;;;;;6.07;4.13;;;17.10;99.90;;;;;;5030326;28;20425;-59
2022/07/14 01:24:33;;;;;;;7.57;4.07;;;17.10;99.90;;;;;;5038937;28;20071;-60
2022/07/14 01:26:59;;;;;;;7.05;4.20;;;17.10;99.90;;;;;;5033341;28;20568;-60
2022/07/14 01:29:26;;;;;;;5.03;3.28;;;17.10;99.90;;;;;;5038206;28;20072;-60
2022/07/14 01:31:52;;;;;;;9.18;4.07;;;17.10;99.90;;;;;;5032234;28;20476;-60
2022/07/14 01:34:18;;;;;;;9.82;3.63;;;17.10;99.90;;;;;;5031341;28;20041;-60
2022/07/14 01:36:44;;;;;;;4.45;3.72;;;17.00;99.90;;;;;;5031142;28;20414;-60
2022/07/14 01:39:10;;;;;;;6.80;4.55;;;16.90;99.90;;;;;;5028661;28;20551;-60
2022/07/14 01:41:36;;;;;;;8.68;4.93;;;16.80;99.90;;;;;;5037298;28;20038;-59
2022/07/14 01:44:02;;;;;;;10.43;5.18;;;16.80;99.90;;;;;;5037216;28;20025;-58
2022/07/14 01:46:28;;;;;;;9.95;4.25;;;16.70;99.90;;;;;;5040350;28;20022;-59
2022/07/14 01:48:54;;;;;;;7.72;4.50;;;16.70;99.90;;;;;;5036300;28;20052;-60
2022/07/14 01:51:20;;;;;;;8.32;5.00;;;16.70;99.90;;;;;;5040462;28;20022;-60
2022/07/14 01:53:46;;;;;;;6.47;4.70;;;16.70;99.90;;;;;;5041894;28;20029;-59
2022/07/14 01:56:12;;;;;;;4.97;3.90;;;16.60;99.90;;;;;;5037405;28;20025;-59
2022/07/14 01:58:38;;;;;;;4.85;3.83;;;16.70;99.90;;;;;;5029876;28;20033;-59
2022/07/14 02:03:52;;;;;;;10.30;5.03;;;16.70;99.90;;;;;;5028100;28;20442;-59
2022/07/14 02:06:18;;;;;;;7.05;4.60;;;16.60;99.90;;;;;;5032265;28;20030;-59
2022/07/14 02:08:44;;;;;;;8.35;5.00;;;16.60;99.90;;;;;;5030736;28;20025;-59
2022/07/14 02:13:53;;;;;;;9.50;4.22;;;16.50;99.90;;;;;;5030370;28;20491;-59
2022/07/14 02:16:20;;;;;;;5.35;3.88;;;16.50;99.90;;;;;;5036755;28;20025;-59
2022/07/14 02:18:45;;;;;;;7.85;5.03;;;16.50;99.90;;;;;;5030527;28;20925;-59
2022/07/14 02:21:11;;;;;;;8.57;5.93;;;16.50;99.90;;;;;;5035663;28;20133;-59
2022/07/14 02:23:36;;;;;;;8.13;4.80;;;16.40;99.90;;;;;;5036436;28;20037;-59
2022/07/14 02:26:02;;;;;;;10.98;6.53;;;16.50;99.90;;;;;;5036000;28;20022;-59
2022/07/14 02:28:28;;;;;;;6.72;5.88;;;16.40;99.90;;;;;;5029132;28;20037;-59
2022/07/14 02:30:53;;;;;;;9.93;6.07;;;16.40;99.90;;;;;;5040034;28;20021;-59
2022/07/14 02:33:19;;;;;;;10.48;5.80;;;16.40;99.90;;;;;;5044451;28;20029;-59
2022/07/14 02:35:45;;;;;;;11.95;6.88;;;16.30;99.90;;;;;;5032408;28;20033;-59
2022/07/14 02:38:11;;;;;;;10.38;5.88;;;16.30;99.90;;;;;;5029548;28;20032;-58
2022/07/14 02:40:36;;;;;;;13.13;6.60;;;16.20;99.90;;;;;;5035545;28;20392;-59
2022/07/14 02:43:02;;;;;;;8.55;5.80;;;16.10;99.90;;;;;;5034993;28;20044;-59
2022/07/14 02:45:28;;;;;;;10.90;5.82;;;16.10;99.90;;;;;;5042753;28;20029;-59
2022/07/14 02:47:53;;;;;;;9.35;5.93;;;16.00;99.90;;;;;;5041853;28;20033;-59
2022/07/14 02:50:19;;;;;;;9.00;6.07;;;15.90;99.90;;;;;;5038490;28;20029;-59
2022/07/14 02:52:45;;;;;;;10.82;6.32;;;15.90;99.90;;;;;;5035628;28;20059;-58
2022/07/14 02:55:10;;;;;;;9.20;6.03;;;15.90;99.90;;;;;;5034333;28;20030;-58
2022/07/14 02:57:36;;;;;;;12.52;6.35;;;15.90;99.90;;;;;;5039730;28;20032;-58
2022/07/14 03:00:04;;;;;;;7.10;5.72;;;15.90;99.90;;;;;;5038207;28;20114;-58
2022/07/14 03:02:30;;;;;;;9.60;6.35;;;15.90;99.90;;;;;;5045515;28;20040;-58
2022/07/14 03:04:55;;;;;;;11.00;5.82;;;15.80;99.90;;;;;;5041478;28;20026;-58
2022/07/14 03:07:21;;;;;;;7.82;5.78;;;15.70;99.90;;;;;;5037975;28;20040;-58
2022/07/14 03:09:47;;;;;;;15.32;6.63;;;15.80;99.90;;;;;;5045601;28;20133;-58
2022/07/14 03:12:13;;;;;;;11.18;6.25;;;15.70;99.90;;;;;;5044565;28;20040;-59
2022/07/14 03:14:38;;;;;;;7.95;6.43;;;15.70;99.90;;;;;;5044453;28;20032;-59
2022/07/14 03:17:04;;;;;;;11.07;6.03;;;15.70;99.90;;;;;;5036787;28;20127;-58
2022/07/14 03:19:30;;;;;;;15.82;6.95;;;15.70;99.90;;;;;;5037024;28;20465;-58
2022/07/14 03:21:55;;;;;;;8.75;6.50;;;15.70;99.90;;;;;;5048461;28;20040;-58
2022/07/14 03:24:21;;;;;;;14.20;8.02;;;15.70;99.90;;;;;;5043200;28;20022;-59
2022/07/14 03:26:47;;;;;;;8.52;6.30;;;15.60;99.90;;;;;;5041922;28;20039;-58
2022/07/14 03:29:13;;;;;;;12.18;7.03;;;15.60;99.90;;;;;;5034610;28;20021;-58
2022/07/14 03:31:39;;;;;;;15.02;6.80;;;15.60;99.90;;;;;;5040271;28;20029;-58
2022/07/14 03:34:05;;;;;;;10.93;6.28;;;15.60;99.90;;;;;;5042282;28;20035;-58
2022/07/14 03:36:31;;;;;;;13.68;7.95;;;15.60;99.90;;;;;;5041081;28;20028;-59
2022/07/14 03:38:57;;;;;;;9.95;6.82;;;15.60;99.90;;;;;;5043741;28;20033;-59
2022/07/14 03:41:22;;;;;;;13.77;7.18;;;15.60;99.90;;;;;;5039863;28;20037;-59
2022/07/14 03:43:48;;;;;;;18.20;7.65;;;15.50;99.90;;;;;;5025283;28;20037;-60
2022/07/14 03:46:14;;;;;;;13.60;7.50;;;15.60;99.90;;;;;;5023192;28;20026;-60
2022/07/14 03:48:40;;;;;;;8.32;6.93;;;15.50;99.90;;;;;;5046282;28;20469;-60
2022/07/14 03:51:06;;;;;;;13.63;7.20;;;15.50;99.90;;;;;;5027435;28;20029;-59
2022/07/14 03:53:32;;;;;;;15.35;7.63;;;15.50;99.90;;;;;;5042497;28;20053;-59
2022/07/14 03:55:59;;;;;;;14.25;7.53;;;15.50;99.90;;;;;;5049270;28;20122;-59
2022/07/14 03:58:25;;;;;;;11.23;7.70;;;15.50;99.90;;;;;;5032616;28;20021;-59
2022/07/14 04:00:51;;;;;;;18.15;8.50;;;15.50;99.90;;;;;;5025389;28;20033;-59
2022/07/14 04:03:17;;;;;;;13.48;8.02;;;15.40;99.90;;;;;;5045298;28;20087;-59
2022/07/14 04:05:44;;;;;;;15.60;8.20;;;15.40;99.90;;;;;;5038882;28;20100;-59
2022/07/14 04:08:09;;;;;;;15.38;7.55;;;15.40;99.90;;;;;;5040840;28;20036;-59
2022/07/14 04:10:35;;;;;;;15.00;7.82;;;15.50;99.90;;;;;;5023742;28;20021;-59
2022/07/14 04:13:01;;;;;;;13.27;7.65;;;15.40;99.90;;;;;;5037851;28;20084;-59
2022/07/14 04:15:28;;;;;;;15.20;8.15;;;15.40;99.90;;;;;;5034102;28;20520;-59
2022/07/14 04:17:55;;;;;;;15.07;7.38;;;15.40;99.90;;;;;;5031985;28;20033;-59
2022/07/14 04:20:21;;;;;;;16.38;7.85;;;15.40;99.90;;;;;;5040927;28;20029;-59
2022/07/14 04:22:48;;;;;;;15.68;7.85;;;15.50;99.90;;;;;;5033084;28;20088;-59
2022/07/14 04:25:14;;;;;;;13.60;8.18;;;15.50;99.90;;;;;;5041170;28;20480;-60
2022/07/14 04:27:40;;;;;;;12.15;8.02;;;15.50;99.90;;;;;;5029298;28;20064;-58
2022/07/14 04:30:07;;;;;;;15.43;8.30;;;15.60;99.90;;;;;;5037351;28;20036;-59
2022/07/14 04:32:33;;;;;;;13.43;8.68;;;15.50;99.90;;;;;;5034105;28;20384;-59
2022/07/14 04:34:59;;;;;;;19.80;8.40;;;15.60;99.90;;;;;;5034119;28;20045;-59
2022/07/14 04:37:26;;;;;;;12.55;7.28;;;15.60;99.90;;;;;;5037967;28;20038;-60
2022/07/14 04:39:54;;;;;;;15.50;8.48;;;15.70;99.90;;;;;;5037701;28;20033;-60
2022/07/14 04:42:20;;;;;;;14.57;8.55;;;15.50;99.90;;;;;;5032545;28;20053;-59
2022/07/14 04:44:46;;;;;;;17.35;8.50;;;15.60;99.90;;;;;;5033756;28;20025;-59
2022/07/14 04:47:12;;;;;;;14.60;7.57;;;15.60;99.90;;;;;;5043201;28;20025;-59
2022/07/14 04:52:22;;;;;;;18.48;7.50;;;15.80;99.90;;;;;;5033371;28;20090;-59
2022/07/14 04:54:48;;;;;;;14.55;7.45;;;15.90;99.90;;;;;;5033522;28;20021;-60
2022/07/14 04:57:13;;;;;;;15.70;7.53;;;15.90;99.90;;;;;;5048006;28;20044;-60
2022/07/14 04:59:40;;;;;;;11.60;7.15;;;16.00;99.90;;;;;;5037252;28;20392;-60
2022/07/14 05:02:05;;;;;;;13.70;7.93;;;16.00;99.90;;;;;;5039426;28;20538;-60
2022/07/14 05:04:31;;;;;;;13.95;7.63;;;16.00;99.90;;;;;;5041158;28;20037;-59
2022/07/14 05:06:57;;;;;;;14.52;8.23;;;16.00;99.90;;;;;;5035355;28;20493;-59
2022/07/14 05:09:25;;;;;;;15.43;7.88;;;16.10;99.90;;;;;;5034263;28;20040;-59
2022/07/14 05:11:54;;;;;;;13.50;8.23;;;16.00;99.90;;;;;;5028792;28;20049;-60
2022/07/14 05:14:20;;;;;;;15.85;8.40;;;16.00;99.90;;;;;;5062466;28;20375;-60
2022/07/14 05:16:47;;;;;;;15.88;8.38;;;16.00;99.90;;;;;;5033065;28;20083;-59
2022/07/14 05:19:13;;;;;;;15.93;8.98;;;15.90;99.90;;;;;;5034071;28;20065;-60
2022/07/14 05:21:39;;;;;;;16.73;7.95;;;16.00;99.90;;;;;;5037409;28;20080;-60
2022/07/14 05:24:05;;;;;;;17.27;8.45;;;16.00;99.90;;;;;;5048074;28;20445;-59
2022/07/14 05:26:30;;;;;;;17.95;8.93;;;16.00;99.90;;;;;;5039709;28;20033;-59
2022/07/14 05:28:56;;;;;;;12.35;7.63;;;16.00;99.90;;;;;;5037132;28;20469;-59
2022/07/14 05:31:22;;;;;;;17.65;7.95;;;16.00;99.90;;;;;;5034832;28;20033;-59
2022/07/14 05:33:48;;;;;;;13.95;8.32;;;16.10;99.90;;;;;;5035620;28;20030;-60
2022/07/14 05:36:14;;;;;;;15.45;7.68;;;16.10;99.90;;;;;;5034402;28;20021;-59
2022/07/14 05:38:40;;;;;;;17.20;8.73;;;16.20;99.90;;;;;;5025216;28;20025;-59
2022/07/14 05:41:06;;;;;;;15.10;7.90;;;16.10;99.90;;;;;;5029510;28;20072;-59
2022/07/14 05:43:32;;;;;;;13.38;7.38;;;16.20;99.90;;;;;;5031823;28;20128;-59
2022/07/14 05:46:08;;;;;;;18.95;7.32;;;16.30;99.90;;;;;;5028964;28;20026;-59
2022/07/14 05:48:35;;;;;;;18.77;7.50;;;16.30;99.90;;;;;;5029072;28;20025;-58
2022/07/14 05:51:13;;;;;;;18.02;7.55;;;16.40;99.90;;;;;;5027350;28;20127;-59
2022/07/14 05:53:39;;;;;;;16.77;7.57;;;16.40;99.90;;;;;;5028937;28;20055;-59
2022/07/14 05:56:06;;;;;;;15.65;6.60;;;16.50;99.90;;;;;;5030031;28;20025;-59
2022/07/14 05:58:33;;;;;;;17.00;7.25;;;16.50;99.90;;;;;;5031202;28;20042;-59
2022/07/14 06:00:59;;;;;;;12.23;6.35;;;16.70;99.90;;;;;;5035502;28;20163;-60
2022/07/14 06:03:25;;;;;;;12.30;6.55;;;16.70;99.90;;;;;;5026381;28;20037;-59
2022/07/14 06:05:51;;;;;;;14.00;7.15;;;16.80;99.90;;;;;;5029884;28;20022;-60
2022/07/14 06:08:17;;;;;;;12.07;6.45;;;16.80;99.90;;;;;;5030106;28;20032;-60
2022/07/14 06:10:43;;;;;;;17.45;6.57;;;16.80;99.90;;;;;;5030086;28;20473;-59
2022/07/14 06:13:09;;;;;;;13.13;6.53;;;16.90;99.90;;;;;;5038220;28;20090;-58
2022/07/14 06:15:35;;;;;;;20.33;6.70;;;17.10;99.90;;;;;;5029206;28;20112;-59
2022/07/14 06:18:01;;;;;;;15.32;6.88;;;17.10;99.90;;;;;;5045047;28;20099;-59
2022/07/14 06:20:27;;;;;;;15.02;5.65;;;17.20;99.90;;;;;;5036682;28;20025;-59
2022/07/14 06:22:52;;;;;;;18.35;6.63;;;17.40;99.90;;;;;;5032212;28;20118;-60
2022/07/14 06:25:18;;;;;;;19.45;6.50;;;17.40;99.90;;;;;;5028760;28;20458;-59
2022/07/14 06:27:44;;;;;;;20.15;6.53;;;17.50;99.90;;;;;;5030778;28;20040;-59
2022/07/14 06:30:10;;;;;;;10.93;5.70;;;17.60;99.90;;;;;;5030333;28;20349;-60
2022/07/14 06:32:40;;;;;;;12.10;6.03;;;17.60;99.90;;;;;;5028903;28;20078;-60
2022/07/14 06:35:07;;;;;;;16.05;5.55;;;17.70;99.90;;;;;;5038002;28;20096;-58
2022/07/14 06:37:34;;;;;;;16.05;6.38;;;17.70;99.90;;;;;;5031507;28;20037;-59
2022/07/14 06:40:04;;;;;;;17.58;5.40;;;17.80;99.90;;;;;;5029312;28;20021;-59
2022/07/14 06:42:30;;;;;;;19.40;5.60;;;17.90;99.90;;;;;;5035041;28;20037;-60
2022/07/14 06:44:55;;;;;;;12.75;5.47;;;17.90;99.90;;;;;;5033285;28;20033;-60
2022/07/14 06:47:21;;;;;;;20.77;5.75;;;17.90;99.90;;;;;;5029093;28;20026;-61
2022/07/14 06:49:47;;;;;;;13.57;5.45;;;18.00;99.90;;;;;;5033585;28;20101;-60
2022/07/14 06:52:12;;;;;;;15.07;5.82;;;18.00;99.90;;;;;;5033680;28;20025;-60
2022/07/14 06:54:38;;;;;;;15.70;5.63;;;18.00;99.90;;;;;;5029072;28;20040;-58
2022/07/14 06:57:04;;;;;;;16.30;5.18;;;18.10;99.90;;;;;;5028222;28;20077;-59
2022/07/14 06:59:30;;;;;;;12.65;5.47;;;18.00;99.90;;;;;;5031245;28;20037;-59
2022/07/14 07:01:56;;;;;;;10.25;5.35;;;18.00;99.90;;;;;;5023497;28;20037;-60
2022/07/14 07:04:23;;;;;;;12.95;5.72;;;18.10;99.90;;;;;;5027472;28;20153;-59
2022/07/14 07:06:50;;;;;;;15.05;5.90;;;18.10;99.90;;;;;;5030428;28;20037;-59
2022/07/14 07:09:18;;;;;;;17.30;6.53;;;18.20;99.90;;;;;;5033273;28;20037;-60
2022/07/14 07:11:50;;;;;;;16.73;5.97;;;18.30;99.90;;;;;;5029525;28;20026;-58
2022/07/14 07:14:17;;;;;;;10.63;5.88;;;18.40;99.90;;;;;;5029233;28;20037;-59
2022/07/14 07:16:47;;;;;;;15.05;7.22;;;18.50;99.90;;;;;;5033323;28;20072;-59
2022/07/14 07:19:13;;;;;;;17.52;5.70;;;18.60;99.90;;;;;;5031391;28;20112;-59
2022/07/14 07:21:39;;;;;;;12.10;4.50;;;18.60;99.90;;;;;;5035597;28;20037;-59
2022/07/14 07:24:05;;;;;;;15.38;5.63;;;18.70;99.90;;;;;;5033158;28;20038;-60
2022/07/14 07:26:39;;;;;;;13.05;4.78;;;18.70;99.90;;;;;;5036224;28;20049;-59
2022/07/14 07:29:05;;;;;;;14.50;4.93;;;18.90;99.90;;;;;;5032771;28;20030;-59
2022/07/14 07:31:32;;;;;;;11.43;5.30;;;18.90;99.90;;;;;;5035596;28;20378;-60
2022/07/14 07:34:00;;;;;;;13.18;5.45;;;19.00;99.90;;;;;;5039675;28;20236;-60
2022/07/14 07:36:26;;;;;;;18.27;5.03;;;19.00;99.90;;;;;;5035195;28;20477;-60
2022/07/14 07:38:51;;;;;;;12.30;4.15;;;19.10;99.90;;;;;;5037236;28;20049;-59
2022/07/14 07:41:17;;;;;;;16.50;4.55;;;19.20;99.90;;;;;;5033488;28;20029;-57
2022/07/14 07:43:43;;;;;;;14.73;4.70;;;19.30;99.90;;;;;;5029615;28;20132;-59
2022/07/14 07:46:09;;;;;;;15.95;5.75;;;19.40;99.90;;;;;;5030938;28;20048;-61
2022/07/14 07:48:35;;;;;;;15.40;4.90;;;19.50;99.90;;;;;;5033839;28;20481;-60
2022/07/14 07:51:02;;;;;;;13.02;5.35;;;19.60;99.90;;;;;;5033204;28;20474;-60
2022/07/14 07:53:28;;;;;;;12.57;4.68;;;19.90;99.90;;;;;;5027806;28;20474;-60
2022/07/14 07:55:54;;;;;;;8.75;4.03;;;20.10;99.90;;;;;;5030624;28;20473;-60
2022/07/14 07:58:20;;;;;;;11.57;4.40;;;20.10;99.90;;;;;;5028573;28;20029;-58
2022/07/14 08:00:47;;;;;;;9.02;4.38;;;20.00;99.90;;;;;;5035814;28;20155;-58
2022/07/14 08:03:13;;;;;;;12.82;4.30;;;20.00;99.90;;;;;;5039803;28;20052;-58
2022/07/14 08:05:40;;;;;;;12.27;4.85;;;20.10;99.90;;;;;;5037651;28;20025;-59
2022/07/14 08:08:09;;;;;;;16.17;3.80;;;20.00;99.90;;;;;;5033631;28;20033;-59
2022/07/14 08:10:36;;;;;;;13.32;3.90;;;20.10;99.90;;;;;;5039452;28;20498;-59
2022/07/14 08:13:02;;;;;;;8.32;4.32;;;20.30;99.90;;;;;;5023626;28;20049;-59
2022/07/14 08:15:28;;;;;;;9.38;3.75;;;20.50;99.90;;;;;;5039742;28;20381;-60
2022/07/14 08:17:54;;;;;;;8.18;3.95;;;20.60;99.90;;;;;;5031092;28;20024;-60
2022/07/14 08:20:19;;;;;;;9.05;4.47;;;20.60;99.90;;;;;;5032795;28;20446;-60
2022/07/14 08:22:45;;;;;;;11.02;4.35;;;20.70;99.90;;;;;;5035721;28;20046;-59
2022/07/14 08:25:11;;;;;;;14.15;5.15;;;20.70;99.90;;;;;;5033763;28;20029;-58
2022/07/14 08:27:37;;;;;;;8.25;4.65;;;20.50;99.90;;;;;;5029112;28;20037;-58
2022/07/14 08:30:04;;;;;;;11.75;4.63;;;20.40;99.90;;;;;;5038337;28;20091;-59
2022/07/14 08:32:41;;;;;;;11.18;5.18;;;20.20;99.90;;;;;;5029978;28;20474;-59
2022/07/14 08:35:09;;;;;;;10.15;4.40;;;20.10;99.90;;;;;;5039224;28;20029;-59
2022/07/14 08:37:36;;;;;;;10.68;5.13;;;20.20;99.90;;;;;;5033671;28;20393;-59
2022/07/14 08:40:03;;;;;;;9.52;4.00;;;20.30;99.90;;;;;;5031862;28;20033;-60
2022/07/14 08:42:29;;;;;;;9.98;4.68;;;20.40;99.90;;;;;;5034890;28;20048;-58
2022/07/14 08:44:55;;;;;;;10.63;4.50;;;20.40;99.90;;;;;;5035293;28;20020;-59
2022/07/14 08:47:21;;;;;;;8.43;3.83;;;20.50;99.90;;;;;;5028826;28;20025;-60
2022/07/14 08:49:47;;;;;;;6.38;4.15;;;20.60;99.90;;;;;;5036575;28;20723;-60
2022/07/14 08:52:17;;;;;;;10.35;4.50;;;20.70;99.90;;;;;;5040862;28;20116;-59
2022/07/14 08:54:45;;;;;;;7.25;3.30;;;20.80;99.90;;;;;;5030946;28;20044;-58
2022/07/14 08:57:11;;;;;;;8.85;4.22;;;20.70;99.90;;;;;;5028838;28;20166;-58
2022/07/14 08:59:38;;;;;;;9.52;4.15;;;20.90;99.90;;;;;;5027875;28;20511;-59
2022/07/14 09:02:04;;;;;;;11.57;4.25;;;20.90;99.90;;;;;;5036837;28;20033;-59
2022/07/14 09:04:30;;;;;;;9.75;4.68;;;20.80;99.90;;;;;;5030157;28;20052;-58
2022/07/14 09:06:56;;;;;;;10.75;3.90;;;20.90;99.90;;;;;;5025220;28;20017;-59
2022/07/14 09:09:26;;;;;;;5.35;3.08;;;21.10;99.90;;;;;;5037634;28;20041;-58
2022/07/14 09:11:56;;;;;;;6.70;3.25;;;21.10;99.90;;;;;;5030402;28;20025;-59
2022/07/14 09:14:23;;;;;;;9.13;3.10;;;21.10;99.90;;;;;;5031641;28;20395;-60
2022/07/14 09:16:49;;;;;;;4.13;2.45;;;21.10;99.90;;;;;;5030232;28;20025;-60
2022/07/14 09:19:16;;;;;;;9.40;3.53;;;21.20;99.90;;;;;;5032095;28;20051;-59
2022/07/14 09:22:01;;;;;;;5.50;2.60;;;21.50;99.90;;;;;;5033305;28;20045;-58
2022/07/14 09:24:27;;;;;;;6.60;2.45;;;21.70;99.90;;;;;;5031773;28;20125;-62
2022/07/14 09:26:53;;;;;;;3.92;2.40;;;21.80;99.90;;;;;;5029665;28;20104;-59
2022/07/14 09:29:23;;;;;;;13.35;3.40;;;22.00;99.90;;;;;;5040108;28;20044;-60
2022/07/14 09:31:49;;;;;;;7.97;2.88;;;22.10;99.90;;;;;;5036796;28;20037;-59
2022/07/14 09:34:29;;;;;;;5.47;2.40;;;22.30;99.90;;;;;;5038469;28;20032;-59
2022/07/14 09:37:15;;;;;;;5.18;2.17;;;22.30;99.90;;;;;;5025311;28;20053;-61
2022/07/14 09:39:55;;;;;;;8.77;2.47;;;22.30;99.90;;;;;;5037035;28;20354;-58
2022/07/14 09:42:41;;;;;;;7.28;3.05;;;22.40;99.90;;;;;;5031121;28;20124;-58
2022/07/14 09:45:11;;;;;;;6.82;2.20;;;22.60;99.90;;;;;;5041215;28;20028;-59
2022/07/14 09:47:57;;;;;;;8.45;2.15;;;22.70;99.90;;;;;;5031072;28;20082;-59
2022/07/14 09:50:39;;;;;;;3.70;2.10;;;22.60;99.90;;;;;;5032743;28;20040;-59
2022/07/14 09:53:13;;;;;;;7.88;2.25;;;22.60;99.90;;;;;;5032106;28;20468;-59
2022/07/14 09:55:44;;;;;;;5.38;1.80;;;22.60;99.90;;;;;;5031744;28;20037;-59
2022/07/14 09:58:10;;;;;;;6.80;1.75;;;22.60;99.90;;;;;;5031896;28;20029;-60
2022/07/14 10:00:37;;;;;;;8.55;2.03;;;22.60;99.90;;;;;;5026974;28;20440;-60
2022/07/14 10:03:03;;;;;;;5.32;1.70;;;22.90;99.90;;;;;;5033678;28;20075;-59
2022/07/14 10:05:33;;;;;;;6.40;1.65;;;23.00;99.90;;;;;;5027950;28;20112;-59
2022/07/14 10:08:02;;;;;;;4.03;1.83;;;23.20;99.90;;;;;;5034311;28;20032;-59
2022/07/14 10:10:31;;;;;;;10.05;1.50;;;23.20;99.90;;;;;;5028815;28;20123;-58
2022/07/14 10:12:57;;;;;;;2.10;1.23;;;23.00;99.90;;;;;;5034802;28;20058;-58
2022/07/14 10:15:24;;;;;;;10.43;1.63;;;23.00;99.90;;;;;;5030931;28;20029;-58
2022/07/14 10:17:50;;;;;;;4.72;1.30;;;23.10;99.60;;;;;;5029229;28;20099;-59
2022/07/14 10:20:16;;;;;;;8.63;1.48;;;23.10;99.70;;;;;;5029245;28;20037;-59
2022/07/14 10:22:45;;;;;;;10.82;1.33;;;23.40;99.00;;;;;;5028062;28;20073;-58
2022/07/14 10:25:11;;;;;;;4.18;1.42;;;23.50;97.80;;;;;;5029101;28;20026;-58
2022/07/14 10:27:41;;;;;;;5.03;1.25;;;23.40;97.70;;;;;;5027480;28;20489;-59
2022/07/14 10:30:07;;;;;;;5.35;1.60;;;23.50;96.40;;;;;;5028495;28;20484;-59
2022/07/14 10:32:46;;;;;;;3.15;1.27;;;23.50;96.20;;;;;;5029213;28;20140;-59
2022/07/14 10:35:35;;;;;;;4.82;1.38;;;23.60;96.20;;;;;;5036748;28;20122;-59
2022/07/14 10:38:29;;;;;;;3.35;1.00;;;24.00;94.50;;;;;;5028778;28;20127;-60
2022/07/14 10:41:13;;;;;;;2.17;0.90;;;23.90;93.30;;;;;;5025180;28;20037;-59
2022/07/14 10:44:17;;;;;;;6.40;1.30;;;23.80;93.30;;;;;;5029080;28;20036;-58
2022/07/14 10:46:46;;;;;;;5.60;1.20;;;23.80;93.20;;;;;;5027303;28;20033;-60
2022/07/14 10:49:14;;;;;;;4.07;1.00;;;24.00;91.70;;;;;;5028348;28;20022;-60
2022/07/14 10:51:51;;;;;;;5.50;1.20;;;24.20;91.50;;;;;;5031837;28;20037;-60
2022/07/14 10:54:25;;;;;;;7.55;1.33;;;24.30;90.70;;;;;;5036246;28;20400;-58
2022/07/14 10:57:12;;;;;;;3.72;1.30;;;24.40;90.40;;;;;;5029080;28;20106;-58
2022/07/14 10:59:39;;;;;;;4.63;1.08;;;24.30;89.30;;;;;;5033284;28;20086;-58
2022/07/14 11:02:11;;;;;;;6.15;1.10;;;24.20;89.80;;;;;;5034433;28;20052;-59
2022/07/14 11:04:59;;;;;;;;;;;24.50;88.40;;;;;;5041411;28;20115;-59
2022/07/14 11:07:46;;;;;;;4.45;1.10;;;24.50;86.30;;;;;;5031975;28;19909;-58
2022/07/14 11:10:18;;;;;;;4.38;1.02;;;24.90;85.30;;;;;;5035039;28;20031;-58
2022/07/14 11:13:02;;;;;;;4.20;1.42;;;25.40;82.00;;;;;;5034888;28;20064;-58
2022/07/14 11:15:44;;;;;;;6.57;1.30;;;25.80;80.80;;;;;;5030760;28;20056;-58
2022/07/14 11:18:24;;;;;;;4.70;1.08;;;26.30;78.80;;;;;;5042579;28;20038;-58
2022/07/14 11:21:05;;;;;;;7.32;1.20;;;26.30;75.50;;;;;;5031539;28;20032;-58
2022/07/14 11:23:50;;;;;;;2.22;0.95;;;26.40;73.90;;;;;;5032830;28;20053;-60
2022/07/14 11:26:41;;;;;;;3.90;1.45;;;26.70;72.60;;;;;;5032799;28;20029;-60
2022/07/14 11:29:09;;;;;;;6.43;1.20;;;27.30;68.40;;;;;;5025497;28;20057;-59
2022/07/14 11:31:53;;;;;;;2.75;1.23;;;27.10;66.60;;;;;;5030844;28;20026;-60
2022/07/14 11:37:15;;;;;;;5.65;1.13;;;27.60;63.40;;;;;;5034621;28;20131;-60
2022/07/14 11:39:42;;;;;;;10.05;1.17;;;27.70;61.60;;;;;;5030849;28;20026;-59
2022/07/14 11:42:16;;;;;;;4.20;1.15;;;27.90;61.80;;;;;;5031243;28;20523;-59
2022/07/14 11:44:43;;;;;;;2.08;1.00;;;27.90;61.20;;;;;;5037449;28;20041;-59
2022/07/14 11:47:13;;;;;;;4.18;1.67;;;28.10;59.30;;;;;;5036567;28;20041;-58
2022/07/14 11:49:40;;;;;;;2.45;1.48;;;28.00;58.40;;;;;;5027641;28;20100;-58
2022/07/14 11:52:07;;;;;;;7.18;1.30;;;27.90;58.60;;;;;;5031570;28;20034;-59
2022/07/14 11:54:33;;;;;;;5.25;1.00;;;28.30;57.60;;;;;;5031721;28;20029;-59
2022/07/14 11:57:06;;;;;;;4.85;1.35;;;28.00;57.40;;;;;;5035047;28;20037;-59
2022/07/14 11:59:32;;;;;;;6.57;0.80;;;28.30;55.70;;;;;;5030299;28;20032;-59
2022/07/14 12:02:09;;;;;;;4.65;1.58;;;28.20;56.00;;;;;;5029862;28;20568;-59
2022/07/14 12:04:46;;;;;;;5.18;1.08;;;28.50;54.30;;;;;;5031408;28;20033;-59
2022/07/14 12:07:12;;;;;;;3.20;1.10;;;28.80;53.00;;;;;;5033118;28;20492;-58
2022/07/14 12:09:38;;;;;;;4.20;0.98;;;28.50;52.10;;;;;;5036932;28;20025;-58
2022/07/14 12:12:06;;;;;;;5.60;1.83;;;29.00;51.30;;;;;;5034303;28;20025;-58
2022/07/14 12:14:32;;;;;;;2.50;0.90;;;29.10;50.20;;;;;;5028514;28;20168;-59
2022/07/14 12:16:59;;;;;;;6.00;1.45;;;29.00;49.00;;;;;;5030529;28;20362;-59
2022/07/14 12:19:29;;;;;;;5.35;1.08;;;29.50;48.90;;;;;;5034293;28;20492;-59
2022/07/14 12:22:00;;;;;;;4.78;1.40;;;29.00;48.80;;;;;;5032833;28;20046;-58
2022/07/14 12:24:26;;;;;;;5.32;1.23;;;30.20;47.70;;;;;;5035385;28;20167;-58
2022/07/14 12:26:59;;;;;;;4.03;1.10;;;30.60;46.00;;;;;;5035206;28;20032;-58
2022/07/14 12:29:26;;;;;;;2.45;0.82;;;30.80;44.00;;;;;;5031053;28;20029;-58
2022/07/14 12:31:52;;;;;;;4.78;1.20;;;30.90;45.50;;;;;;5028938;28;20438;-58
2022/07/14 12:34:18;;;;;;;2.85;1.02;;;30.40;45.50;;;;;;5033452;28;20033;-59
2022/07/14 12:36:44;;;;;;;3.20;0.90;;;29.90;44.40;;;;;;5041720;28;20159;-58
2022/07/14 12:39:11;;;;;;;2.78;0.90;;;30.40;45.00;;;;;;5030600;28;20470;-60
2022/07/14 12:41:39;;;;;;;2.75;0.85;;;30.60;43.70;;;;;;5030253;28;20037;-60
2022/07/14 12:44:08;;;;;;;3.42;1.35;;;30.70;43.40;;;;;;5032795;28;20105;-58
2022/07/14 12:46:34;;;;;;;3.00;1.40;;;30.80;43.10;;;;;;5030243;28;20057;-58
2022/07/14 12:49:03;;;;;;;5.35;1.17;;;30.40;43.20;;;;;;5038765;28;20120;-59
2022/07/14 12:51:42;;;;;;;3.60;1.23;;;30.80;42.80;;;;;;5028736;28;20022;-58
2022/07/14 12:54:15;;;;;;;2.58;1.05;;;30.80;40.80;;;;;;5031900;28;20029;-59
2022/07/14 12:56:41;;;;;;;2.85;0.90;;;31.20;40.60;;;;;;5028441;28;20167;-59
2022/07/14 12:59:10;;;;;;;3.17;0.90;;;31.20;40.20;;;;;;5030351;28;20155;-59